sensor_id;sensor_type;location;lat;lon;timestamp;P1;durP1;ratioP1;P2;durP2;ratioP2
29576;SDS011;16509;53.862;10.672;2022-08-18T00:01:00;12.88;;;4.60;;
29576;SDS011;16509;53.862;10.672;2022-08-18T00:03:25;4.90;;;4.07;;
29576;SDS011;16509;53.862;10.672;2022-08-18T00:05:53;9.30;;;4.30;;
29576;SDS011;16509;53.862;10.672;2022-08-18T00:08:19;8.35;;;4.15;;
29576;SDS011;16509;53.862;10.672;2022-08-18T00:10:44;8.07;;;4.55;;
29576;SDS011;16509;53.862;10.672;2022-08-18T00:13:10;5.72;;;4.03;;
29576;SDS011;16509;53.862;10.672;2022-08-18T00:15:36;5.88;;;4.50;;
29576;SDS011;16509;53.862;10.672;2022-08-18T00:18:02;7.72;;;4.07;;
29576;SDS011;16509;53.862;10.672;2022-08-18T00:20:27;7.60;;;4.38;;
29576;SDS011;16509;53.862;10.672;2022-08-18T00:22:53;6.80;;;4.00;;
29576;SDS011;16509;53.862;10.672;2022-08-18T00:25:20;6.88;;;3.58;;
29576;SDS011;16509;53.862;10.672;2022-08-18T00:27:46;6.65;;;3.88;;
29576;SDS011;16509;53.862;10.672;2022-08-18T00:30:14;6.30;;;4.00;;
29576;SDS011;16509;53.862;10.672;2022-08-18T00:32:43;5.57;;;3.70;;
29576;SDS011;16509;53.862;10.672;2022-08-18T00:35:15;9.25;;;3.50;;
29576;SDS011;16509;53.862;10.672;2022-08-18T00:37:51;5.97;;;3.65;;
29576;SDS011;16509;53.862;10.672;2022-08-18T00:40:18;5.88;;;3.95;;
29576;SDS011;16509;53.862;10.672;2022-08-18T00:42:47;5.38;;;3.35;;
29576;SDS011;16509;53.862;10.672;2022-08-18T00:45:18;10.25;;;3.60;;
29576;SDS011;16509;53.862;10.672;2022-08-18T00:47:47;11.23;;;3.50;;
29576;SDS011;16509;53.862;10.672;2022-08-18T00:50:16;4.78;;;3.08;;
29576;SDS011;16509;53.862;10.672;2022-08-18T00:52:55;8.75;;;3.40;;
29576;SDS011;16509;53.862;10.672;2022-08-18T00:55:27;4.35;;;3.17;;
29576;SDS011;16509;53.862;10.672;2022-08-18T00:57:57;4.10;;;3.05;;
29576;SDS011;16509;53.862;10.672;2022-08-18T01:00:28;6.03;;;3.53;;
29576;SDS011;16509;53.862;10.672;2022-08-18T01:02:54;5.43;;;2.90;;
29576;SDS011;16509;53.862;10.672;2022-08-18T01:05:34;7.53;;;3.50;;
29576;SDS011;16509;53.862;10.672;2022-08-18T01:08:05;5.35;;;2.85;;
29576;SDS011;16509;53.862;10.672;2022-08-18T01:10:35;6.47;;;3.13;;
29576;SDS011;16509;53.862;10.672;2022-08-18T01:13:01;6.20;;;3.42;;
29576;SDS011;16509;53.862;10.672;2022-08-18T01:15:27;3.65;;;3.05;;
29576;SDS011;16509;53.862;10.672;2022-08-18T01:17:53;5.18;;;3.28;;
29576;SDS011;16509;53.862;10.672;2022-08-18T01:20:44;7.95;;;3.20;;
29576;SDS011;16509;53.862;10.672;2022-08-18T01:23:33;10.05;;;2.90;;
29576;SDS011;16509;53.862;10.672;2022-08-18T01:26:00;8.38;;;2.83;;
29576;SDS011;16509;53.862;10.672;2022-08-18T01:28:38;12.07;;;3.00;;
29576;SDS011;16509;53.862;10.672;2022-08-18T01:31:07;7.25;;;3.03;;
29576;SDS011;16509;53.862;10.672;2022-08-18T01:33:36;4.93;;;3.40;;
29576;SDS011;16509;53.862;10.672;2022-08-18T01:36:13;9.02;;;3.38;;
29576;SDS011;16509;53.862;10.672;2022-08-18T01:38:45;6.80;;;3.47;;
29576;SDS011;16509;53.862;10.672;2022-08-18T01:41:14;7.20;;;3.80;;
29576;SDS011;16509;53.862;10.672;2022-08-18T01:43:40;8.32;;;4.45;;
29576;SDS011;16509;53.862;10.672;2022-08-18T01:46:06;11.30;;;4.95;;
29576;SDS011;16509;53.862;10.672;2022-08-18T01:48:33;7.90;;;5.00;;
29576;SDS011;16509;53.862;10.672;2022-08-18T01:51:02;10.18;;;5.78;;
29576;SDS011;16509;53.862;10.672;2022-08-18T01:53:29;8.30;;;5.70;;
29576;SDS011;16509;53.862;10.672;2022-08-18T01:55:55;10.40;;;6.32;;
29576;SDS011;16509;53.862;10.672;2022-08-18T01:58:21;10.15;;;7.00;;
29576;SDS011;16509;53.862;10.672;2022-08-18T02:00:51;10.35;;;6.50;;
29576;SDS011;16509;53.862;10.672;2022-08-18T02:03:18;11.45;;;6.35;;
29576;SDS011;16509;53.862;10.672;2022-08-18T02:05:44;12.07;;;7.57;;
29576;SDS011;16509;53.862;10.672;2022-08-18T02:08:12;11.77;;;8.18;;
29576;SDS011;16509;53.862;10.672;2022-08-18T02:10:39;10.60;;;7.50;;
29576;SDS011;16509;53.862;10.672;2022-08-18T02:13:06;13.93;;;7.85;;
29576;SDS011;16509;53.862;10.672;2022-08-18T02:15:32;15.10;;;7.30;;
29576;SDS011;16509;53.862;10.672;2022-08-18T02:17:58;9.13;;;7.32;;
29576;SDS011;16509;53.862;10.672;2022-08-18T02:20:24;10.10;;;7.35;;
29576;SDS011;16509;53.862;10.672;2022-08-18T02:22:50;10.75;;;7.65;;
29576;SDS011;16509;53.862;10.672;2022-08-18T02:25:16;9.52;;;7.45;;
29576;SDS011;16509;53.862;10.672;2022-08-18T02:27:42;10.35;;;7.72;;
29576;SDS011;16509;53.862;10.672;2022-08-18T02:30:11;10.55;;;8.00;;
29576;SDS011;16509;53.862;10.672;2022-08-18T02:32:38;8.65;;;7.22;;
29576;SDS011;16509;53.862;10.672;2022-08-18T02:35:05;12.30;;;7.72;;
29576;SDS011;16509;53.862;10.672;2022-08-18T02:37:32;12.25;;;6.97;;
29576;SDS011;16509;53.862;10.672;2022-08-18T02:39:58;10.18;;;6.90;;
29576;SDS011;16509;53.862;10.672;2022-08-18T02:42:24;10.75;;;6.50;;
29576;SDS011;16509;53.862;10.672;2022-08-18T02:44:51;12.95;;;6.93;;
29576;SDS011;16509;53.862;10.672;2022-08-18T02:47:20;12.63;;;7.10;;
29576;SDS011;16509;53.862;10.672;2022-08-18T02:49:46;9.55;;;5.95;;
29576;SDS011;16509;53.862;10.672;2022-08-18T02:52:12;11.25;;;5.95;;
29576;SDS011;16509;53.862;10.672;2022-08-18T02:54:37;11.80;;;6.40;;
29576;SDS011;16509;53.862;10.672;2022-08-18T02:57:07;8.55;;;6.55;;
29576;SDS011;16509;53.862;10.672;2022-08-18T02:59:34;11.15;;;6.38;;
29576;SDS011;16509;53.862;10.672;2022-08-18T03:02:02;9.95;;;6.72;;
29576;SDS011;16509;53.862;10.672;2022-08-18T03:04:30;11.48;;;7.15;;
29576;SDS011;16509;53.862;10.672;2022-08-18T03:06:58;10.10;;;6.72;;
29576;SDS011;16509;53.862;10.672;2022-08-18T03:09:26;6.75;;;6.05;;
29576;SDS011;16509;53.862;10.672;2022-08-18T03:11:52;8.25;;;6.35;;
29576;SDS011;16509;53.862;10.672;2022-08-18T03:14:18;10.18;;;7.30;;
29576;SDS011;16509;53.862;10.672;2022-08-18T03:16:44;11.77;;;6.85;;
29576;SDS011;16509;53.862;10.672;2022-08-18T03:19:11;12.38;;;6.00;;
29576;SDS011;16509;53.862;10.672;2022-08-18T03:21:40;8.45;;;6.47;;
29576;SDS011;16509;53.862;10.672;2022-08-18T03:24:07;9.73;;;6.63;;
29576;SDS011;16509;53.862;10.672;2022-08-18T03:26:33;9.20;;;7.15;;
29576;SDS011;16509;53.862;10.672;2022-08-18T03:28:59;10.65;;;6.85;;
29576;SDS011;16509;53.862;10.672;2022-08-18T03:31:26;11.00;;;7.93;;
29576;SDS011;16509;53.862;10.672;2022-08-18T03:33:54;12.13;;;7.25;;
29576;SDS011;16509;53.862;10.672;2022-08-18T03:36:22;12.05;;;7.45;;
29576;SDS011;16509;53.862;10.672;2022-08-18T03:38:51;10.93;;;7.82;;
29576;SDS011;16509;53.862;10.672;2022-08-18T03:41:18;9.90;;;7.75;;
29576;SDS011;16509;53.862;10.672;2022-08-18T03:43:47;11.80;;;8.23;;
29576;SDS011;16509;53.862;10.672;2022-08-18T03:46:13;9.52;;;8.52;;
29576;SDS011;16509;53.862;10.672;2022-08-18T03:48:40;13.60;;;8.05;;
29576;SDS011;16509;53.862;10.672;2022-08-18T03:51:29;9.73;;;7.82;;
29576;SDS011;16509;53.862;10.672;2022-08-18T03:53:56;14.35;;;8.35;;
29576;SDS011;16509;53.862;10.672;2022-08-18T03:56:25;11.75;;;8.32;;
29576;SDS011;16509;53.862;10.672;2022-08-18T03:58:59;11.13;;;8.15;;
29576;SDS011;16509;53.862;10.672;2022-08-18T04:01:32;11.48;;;8.18;;
29576;SDS011;16509;53.862;10.672;2022-08-18T04:04:02;11.57;;;8.77;;
29576;SDS011;16509;53.862;10.672;2022-08-18T04:06:30;11.48;;;8.32;;
29576;SDS011;16509;53.862;10.672;2022-08-18T04:09:05;13.02;;;8.90;;
29576;SDS011;16509;53.862;10.672;2022-08-18T04:11:33;12.20;;;9.05;;
29576;SDS011;16509;53.862;10.672;2022-08-18T04:14:01;16.27;;;9.80;;
29576;SDS011;16509;53.862;10.672;2022-08-18T04:16:27;23.25;;;10.57;;
29576;SDS011;16509;53.862;10.672;2022-08-18T04:18:56;15.52;;;9.95;;
29576;SDS011;16509;53.862;10.672;2022-08-18T04:21:25;13.88;;;10.15;;
29576;SDS011;16509;53.862;10.672;2022-08-18T04:23:51;16.95;;;10.98;;
29576;SDS011;16509;53.862;10.672;2022-08-18T04:26:17;13.27;;;8.93;;
29576;SDS011;16509;53.862;10.672;2022-08-18T04:28:44;14.48;;;10.52;;
29576;SDS011;16509;53.862;10.672;2022-08-18T04:31:11;17.20;;;10.70;;
29576;SDS011;16509;53.862;10.672;2022-08-18T04:33:39;14.25;;;9.40;;
29576;SDS011;16509;53.862;10.672;2022-08-18T04:36:12;17.00;;;10.65;;
29576;SDS011;16509;53.862;10.672;2022-08-18T04:38:40;11.57;;;10.00;;
29576;SDS011;16509;53.862;10.672;2022-08-18T04:41:07;15.25;;;11.00;;
29576;SDS011;16509;53.862;10.672;2022-08-18T04:43:33;15.38;;;10.45;;
29576;SDS011;16509;53.862;10.672;2022-08-18T04:45:59;19.27;;;11.25;;
29576;SDS011;16509;53.862;10.672;2022-08-18T04:48:32;18.00;;;11.43;;
29576;SDS011;16509;53.862;10.672;2022-08-18T04:51:03;14.15;;;10.85;;
29576;SDS011;16509;53.862;10.672;2022-08-18T04:53:31;15.88;;;10.45;;
29576;SDS011;16509;53.862;10.672;2022-08-18T04:56:26;22.83;;;11.82;;
29576;SDS011;16509;53.862;10.672;2022-08-18T05:01:28;19.05;;;10.93;;
29576;SDS011;16509;53.862;10.672;2022-08-18T05:03:56;16.27;;;11.15;;
29576;SDS011;16509;53.862;10.672;2022-08-18T05:06:23;18.55;;;10.82;;
29576;SDS011;16509;53.862;10.672;2022-08-18T05:08:53;15.60;;;10.45;;
29576;SDS011;16509;53.862;10.672;2022-08-18T05:11:21;16.35;;;10.75;;
29576;SDS011;16509;53.862;10.672;2022-08-18T05:13:48;21.05;;;11.20;;
29576;SDS011;16509;53.862;10.672;2022-08-18T05:16:16;19.00;;;10.88;;
29576;SDS011;16509;53.862;10.672;2022-08-18T05:18:42;19.35;;;10.57;;
29576;SDS011;16509;53.862;10.672;2022-08-18T05:21:09;16.95;;;11.10;;
29576;SDS011;16509;53.862;10.672;2022-08-18T05:23:39;18.80;;;11.32;;
29576;SDS011;16509;53.862;10.672;2022-08-18T05:26:09;17.27;;;10.73;;
29576;SDS011;16509;53.862;10.672;2022-08-18T05:28:38;18.13;;;10.27;;
29576;SDS011;16509;53.862;10.672;2022-08-18T05:31:11;15.57;;;10.20;;
29576;SDS011;16509;53.862;10.672;2022-08-18T05:33:39;22.00;;;11.30;;
29576;SDS011;16509;53.862;10.672;2022-08-18T05:36:06;15.02;;;10.20;;
29576;SDS011;16509;53.862;10.672;2022-08-18T05:38:50;19.83;;;10.70;;
29576;SDS011;16509;53.862;10.672;2022-08-18T05:41:26;15.40;;;10.85;;
29576;SDS011;16509;53.862;10.672;2022-08-18T05:43:58;20.95;;;10.93;;
29576;SDS011;16509;53.862;10.672;2022-08-18T05:46:29;22.38;;;11.68;;
29576;SDS011;16509;53.862;10.672;2022-08-18T05:49:06;18.00;;;10.07;;
29576;SDS011;16509;53.862;10.672;2022-08-18T05:51:37;13.85;;;11.77;;
29576;SDS011;16509;53.862;10.672;2022-08-18T05:54:09;14.02;;;10.25;;
29576;SDS011;16509;53.862;10.672;2022-08-18T05:56:56;16.05;;;10.45;;
29576;SDS011;16509;53.862;10.672;2022-08-18T05:59:32;13.15;;;9.18;;
29576;SDS011;16509;53.862;10.672;2022-08-18T06:07:14;16.50;;;10.05;;
29576;SDS011;16509;53.862;10.672;2022-08-18T06:09:45;14.35;;;9.38;;
29576;SDS011;16509;53.862;10.672;2022-08-18T06:14:43;12.77;;;9.82;;
29576;SDS011;16509;53.862;10.672;2022-08-18T06:17:13;15.85;;;9.80;;
29576;SDS011;16509;53.862;10.672;2022-08-18T06:34:41;14.10;;;9.25;;
29576;SDS011;16509;53.862;10.672;2022-08-18T06:41:01;17.63;;;9.52;;
29576;SDS011;16509;53.862;10.672;2022-08-18T06:43:34;12.02;;;9.13;;
29576;SDS011;16509;53.862;10.672;2022-08-18T06:46:08;16.80;;;9.50;;
29576;SDS011;16509;53.862;10.672;2022-08-18T06:48:45;20.17;;;10.73;;
29576;SDS011;16509;53.862;10.672;2022-08-18T06:51:18;12.98;;;9.13;;
29576;SDS011;16509;53.862;10.672;2022-08-18T06:59:14;13.55;;;9.30;;
29576;SDS011;16509;53.862;10.672;2022-08-18T07:02:01;19.38;;;10.13;;
29576;SDS011;16509;53.862;10.672;2022-08-18T07:04:42;13.57;;;8.50;;
29576;SDS011;16509;53.862;10.672;2022-08-18T07:09:58;12.52;;;9.50;;
29576;SDS011;16509;53.862;10.672;2022-08-18T07:12:25;12.77;;;9.18;;
29576;SDS011;16509;53.862;10.672;2022-08-18T07:14:54;15.90;;;9.55;;
29576;SDS011;16509;53.862;10.672;2022-08-18T07:17:33;18.75;;;9.70;;
29576;SDS011;16509;53.862;10.672;2022-08-18T07:22:28;11.77;;;8.00;;
29576;SDS011;16509;53.862;10.672;2022-08-18T07:24:54;13.73;;;8.50;;
29576;SDS011;16509;53.862;10.672;2022-08-18T07:27:45;10.82;;;8.02;;
29576;SDS011;16509;53.862;10.672;2022-08-18T07:35:12;14.52;;;9.35;;
29576;SDS011;16509;53.862;10.672;2022-08-18T07:37:53;11.95;;;9.57;;
29576;SDS011;16509;53.862;10.672;2022-08-18T07:40:28;17.70;;;10.05;;
29576;SDS011;16509;53.862;10.672;2022-08-18T07:43:04;15.23;;;9.50;;
29576;SDS011;16509;53.862;10.672;2022-08-18T07:45:40;13.95;;;9.40;;
29576;SDS011;16509;53.862;10.672;2022-08-18T07:48:24;19.52;;;9.68;;
29576;SDS011;16509;53.862;10.672;2022-08-18T07:54:01;13.15;;;8.32;;
29576;SDS011;16509;53.862;10.672;2022-08-18T07:57:02;12.57;;;8.93;;
29576;SDS011;16509;53.862;10.672;2022-08-18T08:04:56;13.70;;;8.18;;
29576;SDS011;16509;53.862;10.672;2022-08-18T08:07:26;10.95;;;8.38;;
29576;SDS011;16509;53.862;10.672;2022-08-18T08:10:07;18.40;;;8.32;;
29576;SDS011;16509;53.862;10.672;2022-08-18T08:18:18;11.75;;;7.20;;
29576;SDS011;16509;53.862;10.672;2022-08-18T08:20:53;14.38;;;7.97;;
29576;SDS011;16509;53.862;10.672;2022-08-18T08:23:23;9.88;;;7.07;;
29576;SDS011;16509;53.862;10.672;2022-08-18T08:26:15;12.95;;;7.95;;
29576;SDS011;16509;53.862;10.672;2022-08-18T08:37:13;12.45;;;7.55;;
29576;SDS011;16509;53.862;10.672;2022-08-18T08:42:19;10.27;;;7.00;;
29576;SDS011;16509;53.862;10.672;2022-08-18T08:44:56;14.77;;;7.90;;
29576;SDS011;16509;53.862;10.672;2022-08-18T08:50:26;12.05;;;7.78;;
29576;SDS011;16509;53.862;10.672;2022-08-18T08:55:46;10.38;;;7.20;;
29576;SDS011;16509;53.862;10.672;2022-08-18T08:58:21;13.07;;;8.05;;
29576;SDS011;16509;53.862;10.672;2022-08-18T09:00:50;9.52;;;6.75;;
29576;SDS011;16509;53.862;10.672;2022-08-18T09:06:20;11.32;;;7.53;;
29576;SDS011;16509;53.862;10.672;2022-08-18T09:09:22;14.18;;;7.63;;
29576;SDS011;16509;53.862;10.672;2022-08-18T09:17:34;10.93;;;8.82;;
29576;SDS011;16509;53.862;10.672;2022-08-18T09:20:36;12.88;;;8.25;;
29576;SDS011;16509;53.862;10.672;2022-08-18T09:23:21;13.32;;;8.38;;
29576;SDS011;16509;53.862;10.672;2022-08-18T09:25:54;13.70;;;8.88;;
29576;SDS011;16509;53.862;10.672;2022-08-18T09:41:52;16.25;;;8.30;;
29576;SDS011;16509;53.862;10.672;2022-08-18T09:47:05;15.45;;;9.75;;
29576;SDS011;16509;53.862;10.672;2022-08-18T09:49:46;14.27;;;9.10;;
29576;SDS011;16509;53.862;10.672;2022-08-18T09:54:52;12.48;;;8.95;;
29576;SDS011;16509;53.862;10.672;2022-08-18T09:57:22;13.25;;;9.57;;
29576;SDS011;16509;53.862;10.672;2022-08-18T09:59:52;19.17;;;9.93;;
29576;SDS011;16509;53.862;10.672;2022-08-18T10:16:38;17.60;;;12.35;;
29576;SDS011;16509;53.862;10.672;2022-08-18T10:22:00;20.92;;;14.88;;
29576;SDS011;16509;53.862;10.672;2022-08-18T10:30:00;20.17;;;13.75;;
29576;SDS011;16509;53.862;10.672;2022-08-18T10:32:37;23.80;;;13.90;;
29576;SDS011;16509;53.862;10.672;2022-08-18T10:35:05;24.00;;;15.32;;
29576;SDS011;16509;53.862;10.672;2022-08-18T10:37:55;21.30;;;14.07;;
29576;SDS011;16509;53.862;10.672;2022-08-18T10:40:21;20.95;;;14.10;;
29576;SDS011;16509;53.862;10.672;2022-08-18T10:50:29;24.38;;;17.05;;
29576;SDS011;16509;53.862;10.672;2022-08-18T10:58:42;29.17;;;18.58;;
29576;SDS011;16509;53.862;10.672;2022-08-18T11:04:21;30.52;;;17.67;;
29576;SDS011;16509;53.862;10.672;2022-08-18T11:07:40;28.45;;;17.25;;
29576;SDS011;16509;53.862;10.672;2022-08-18T11:10:02;33.17;;;18.70;;
29576;SDS011;16509;53.862;10.672;2022-08-18T11:12:55;39.13;;;21.40;;
29576;SDS011;16509;53.862;10.672;2022-08-18T11:18:27;40.45;;;21.38;;
29576;SDS011;16509;53.862;10.672;2022-08-18T11:24:51;35.83;;;20.80;;
29576;SDS011;16509;53.862;10.672;2022-08-18T11:26:49;36.58;;;21.25;;
29576;SDS011;16509;53.862;10.672;2022-08-18T11:29:31;36.13;;;19.95;;
29576;SDS011;16509;53.862;10.672;2022-08-18T11:35:31;32.45;;;18.98;;
29576;SDS011;16509;53.862;10.672;2022-08-18T11:40:52;30.05;;;17.23;;
29576;SDS011;16509;53.862;10.672;2022-08-18T11:43:30;28.85;;;16.65;;
29576;SDS011;16509;53.862;10.672;2022-08-18T11:46:41;30.25;;;17.98;;
29576;SDS011;16509;53.862;10.672;2022-08-18T11:48:52;29.33;;;16.80;;
29576;SDS011;16509;53.862;10.672;2022-08-18T11:51:19;23.73;;;14.30;;
29576;SDS011;16509;53.862;10.672;2022-08-18T11:56:21;26.27;;;16.85;;
29576;SDS011;16509;53.862;10.672;2022-08-18T11:58:55;33.10;;;15.52;;
29576;SDS011;16509;53.862;10.672;2022-08-18T12:03:56;26.67;;;15.80;;
29576;SDS011;16509;53.862;10.672;2022-08-18T12:06:40;25.50;;;15.65;;
29576;SDS011;16509;53.862;10.672;2022-08-18T12:12:43;21.67;;;13.18;;
29576;SDS011;16509;53.862;10.672;2022-08-18T12:17:41;21.05;;;13.20;;
29576;SDS011;16509;53.862;10.672;2022-08-18T12:20:10;20.83;;;13.93;;
29576;SDS011;16509;53.862;10.672;2022-08-18T12:22:36;22.70;;;13.55;;
29576;SDS011;16509;53.862;10.672;2022-08-18T12:25:04;19.52;;;12.90;;
29576;SDS011;16509;53.862;10.672;2022-08-18T12:27:32;19.05;;;11.75;;
29576;SDS011;16509;53.862;10.672;2022-08-18T12:29:58;20.75;;;12.65;;
29576;SDS011;16509;53.862;10.672;2022-08-18T12:32:26;26.48;;;11.77;;
29576;SDS011;16509;53.862;10.672;2022-08-18T12:34:53;16.90;;;10.35;;
29576;SDS011;16509;53.862;10.672;2022-08-18T12:37:20;15.85;;;10.18;;
29576;SDS011;16509;53.862;10.672;2022-08-18T12:39:47;15.80;;;9.00;;
29576;SDS011;16509;53.862;10.672;2022-08-18T12:42:13;14.88;;;9.98;;
29576;SDS011;16509;53.862;10.672;2022-08-18T12:44:39;10.95;;;8.25;;
29576;SDS011;16509;53.862;10.672;2022-08-18T12:47:11;12.95;;;8.20;;
29576;SDS011;16509;53.862;10.672;2022-08-18T12:49:39;13.43;;;8.57;;
29576;SDS011;16509;53.862;10.672;2022-08-18T12:52:05;10.68;;;7.82;;
29576;SDS011;16509;53.862;10.672;2022-08-18T12:54:31;17.10;;;8.32;;
29576;SDS011;16509;53.862;10.672;2022-08-18T12:56:59;11.50;;;7.78;;
29576;SDS011;16509;53.862;10.672;2022-08-18T12:59:24;10.55;;;8.15;;
29576;SDS011;16509;53.862;10.672;2022-08-18T13:01:50;11.43;;;7.50;;
29576;SDS011;16509;53.862;10.672;2022-08-18T13:04:16;14.02;;;8.82;;
29576;SDS011;16509;53.862;10.672;2022-08-18T13:06:46;10.82;;;7.65;;
29576;SDS011;16509;53.862;10.672;2022-08-18T13:09:14;11.68;;;8.05;;
29576;SDS011;16509;53.862;10.672;2022-08-18T13:11:40;9.80;;;7.50;;
29576;SDS011;16509;53.862;10.672;2022-08-18T13:14:06;13.00;;;7.32;;
29576;SDS011;16509;53.862;10.672;2022-08-18T13:16:33;10.05;;;6.70;;
29576;SDS011;16509;53.862;10.672;2022-08-18T13:19:00;12.63;;;7.38;;
29576;SDS011;16509;53.862;10.672;2022-08-18T13:21:26;12.02;;;7.78;;
29576;SDS011;16509;53.862;10.672;2022-08-18T13:23:52;12.13;;;7.22;;
29576;SDS011;16509;53.862;10.672;2022-08-18T13:26:26;14.18;;;8.13;;
29576;SDS011;16509;53.862;10.672;2022-08-18T13:28:54;10.93;;;7.20;;
29576;SDS011;16509;53.862;10.672;2022-08-18T13:31:21;15.35;;;9.35;;
29576;SDS011;16509;53.862;10.672;2022-08-18T13:33:47;10.77;;;7.28;;
29576;SDS011;16509;53.862;10.672;2022-08-18T13:36:14;14.10;;;7.28;;
29576;SDS011;16509;53.862;10.672;2022-08-18T13:38:40;18.08;;;8.18;;
29576;SDS011;16509;53.862;10.672;2022-08-18T13:41:06;19.40;;;9.52;;
29576;SDS011;16509;53.862;10.672;2022-08-18T13:43:34;12.68;;;8.32;;
29576;SDS011;16509;53.862;10.672;2022-08-18T13:46:03;14.40;;;7.38;;
29576;SDS011;16509;53.862;10.672;2022-08-18T13:48:29;10.27;;;8.00;;
29576;SDS011;16509;53.862;10.672;2022-08-18T13:50:56;11.30;;;7.32;;
29576;SDS011;16509;53.862;10.672;2022-08-18T13:53:23;14.50;;;8.13;;
29576;SDS011;16509;53.862;10.672;2022-08-18T13:55:50;12.32;;;7.97;;
29576;SDS011;16509;53.862;10.672;2022-08-18T13:58:16;13.77;;;8.70;;
29576;SDS011;16509;53.862;10.672;2022-08-18T14:00:42;12.57;;;7.57;;
29576;SDS011;16509;53.862;10.672;2022-08-18T14:03:08;11.38;;;7.95;;
29576;SDS011;16509;53.862;10.672;2022-08-18T14:05:35;12.00;;;7.55;;
29576;SDS011;16509;53.862;10.672;2022-08-18T14:08:01;13.38;;;7.55;;
29576;SDS011;16509;53.862;10.672;2022-08-18T14:10:28;10.82;;;7.38;;
29576;SDS011;16509;53.862;10.672;2022-08-18T14:12:56;13.60;;;8.68;;
29576;SDS011;16509;53.862;10.672;2022-08-18T14:15:24;16.08;;;9.35;;
29576;SDS011;16509;53.862;10.672;2022-08-18T14:17:51;11.75;;;8.23;;
29576;SDS011;16509;53.862;10.672;2022-08-18T14:20:17;11.90;;;7.88;;
29576;SDS011;16509;53.862;10.672;2022-08-18T14:23:01;9.48;;;7.30;;
29576;SDS011;16509;53.862;10.672;2022-08-18T14:25:47;8.88;;;6.68;;
29576;SDS011;16509;53.862;10.672;2022-08-18T14:28:32;10.68;;;6.47;;
29576;SDS011;16509;53.862;10.672;2022-08-18T14:30:58;12.63;;;8.32;;
29576;SDS011;16509;53.862;10.672;2022-08-18T14:33:28;20.77;;;7.95;;
29576;SDS011;16509;53.862;10.672;2022-08-18T14:35:55;9.50;;;7.68;;
29576;SDS011;16509;53.862;10.672;2022-08-18T14:38:21;13.02;;;7.85;;
29576;SDS011;16509;53.862;10.672;2022-08-18T14:40:47;13.95;;;8.32;;
29576;SDS011;16509;53.862;10.672;2022-08-18T14:43:15;11.30;;;7.20;;
29576;SDS011;16509;53.862;10.672;2022-08-18T14:45:42;7.22;;;6.10;;
29576;SDS011;16509;53.862;10.672;2022-08-18T14:48:12;8.85;;;6.72;;
29576;SDS011;16509;53.862;10.672;2022-08-18T14:50:44;11.38;;;7.30;;
29576;SDS011;16509;53.862;10.672;2022-08-18T14:53:12;10.10;;;6.30;;
29576;SDS011;16509;53.862;10.672;2022-08-18T14:55:38;11.90;;;6.93;;
29576;SDS011;16509;53.862;10.672;2022-08-18T14:58:04;7.97;;;5.88;;
29576;SDS011;16509;53.862;10.672;2022-08-18T15:00:30;11.57;;;6.18;;
29576;SDS011;16509;53.862;10.672;2022-08-18T15:02:56;11.75;;;7.50;;
29576;SDS011;16509;53.862;10.672;2022-08-18T15:05:22;8.20;;;6.75;;
29576;SDS011;16509;53.862;10.672;2022-08-18T15:07:48;10.27;;;7.68;;
29576;SDS011;16509;53.862;10.672;2022-08-18T15:10:13;11.05;;;8.40;;
29576;SDS011;16509;53.862;10.672;2022-08-18T15:12:40;14.43;;;7.43;;
29576;SDS011;16509;53.862;10.672;2022-08-18T15:15:08;13.20;;;6.88;;
29576;SDS011;16509;53.862;10.672;2022-08-18T15:17:36;9.82;;;7.82;;
29576;SDS011;16509;53.862;10.672;2022-08-18T15:20:04;11.70;;;7.55;;
29576;SDS011;16509;53.862;10.672;2022-08-18T15:22:31;9.13;;;6.13;;
29576;SDS011;16509;53.862;10.672;2022-08-18T15:25:21;13.50;;;7.57;;
29576;SDS011;16509;53.862;10.672;2022-08-18T15:28:06;9.95;;;7.03;;
29576;SDS011;16509;53.862;10.672;2022-08-18T15:30:33;10.98;;;7.82;;
29576;SDS011;16509;53.862;10.672;2022-08-18T15:33:01;13.57;;;7.72;;
29576;SDS011;16509;53.862;10.672;2022-08-18T15:35:26;11.30;;;7.03;;
29576;SDS011;16509;53.862;10.672;2022-08-18T15:37:52;10.40;;;7.70;;
29576;SDS011;16509;53.862;10.672;2022-08-18T15:40:20;8.82;;;6.57;;
29576;SDS011;16509;53.862;10.672;2022-08-18T15:42:48;8.65;;;6.22;;
29576;SDS011;16509;53.862;10.672;2022-08-18T15:45:16;11.63;;;7.80;;
29576;SDS011;16509;53.862;10.672;2022-08-18T15:47:50;9.73;;;6.78;;
29576;SDS011;16509;53.862;10.672;2022-08-18T15:50:19;10.75;;;7.68;;
29576;SDS011;16509;53.862;10.672;2022-08-18T15:52:46;13.50;;;8.48;;
29576;SDS011;16509;53.862;10.672;2022-08-18T15:55:14;9.07;;;6.82;;
29576;SDS011;16509;53.862;10.672;2022-08-18T15:57:43;12.05;;;7.85;;
29576;SDS011;16509;53.862;10.672;2022-08-18T16:00:10;10.85;;;6.35;;
29576;SDS011;16509;53.862;10.672;2022-08-18T16:02:36;10.30;;;7.15;;
29576;SDS011;16509;53.862;10.672;2022-08-18T16:05:04;13.32;;;7.82;;
29576;SDS011;16509;53.862;10.672;2022-08-18T16:07:30;13.52;;;9.32;;
29576;SDS011;16509;53.862;10.672;2022-08-18T16:09:56;11.70;;;7.65;;
29576;SDS011;16509;53.862;10.672;2022-08-18T16:12:21;12.02;;;7.60;;
29576;SDS011;16509;53.862;10.672;2022-08-18T16:14:47;11.27;;;8.63;;
29576;SDS011;16509;53.862;10.672;2022-08-18T16:17:16;9.77;;;6.70;;
29576;SDS011;16509;53.862;10.672;2022-08-18T16:19:43;11.77;;;7.78;;
29576;SDS011;16509;53.862;10.672;2022-08-18T16:22:08;9.52;;;7.20;;
29576;SDS011;16509;53.862;10.672;2022-08-18T16:24:34;12.23;;;7.15;;
29576;SDS011;16509;53.862;10.672;2022-08-18T16:26:59;11.00;;;7.07;;
29576;SDS011;16509;53.862;10.672;2022-08-18T16:29:25;10.65;;;7.10;;
29576;SDS011;16509;53.862;10.672;2022-08-18T16:31:50;7.78;;;5.65;;
29576;SDS011;16509;53.862;10.672;2022-08-18T16:34:16;9.82;;;7.47;;
29576;SDS011;16509;53.862;10.672;2022-08-18T16:36:42;9.52;;;7.38;;
29576;SDS011;16509;53.862;10.672;2022-08-18T16:39:08;9.95;;;7.20;;
29576;SDS011;16509;53.862;10.672;2022-08-18T16:41:33;9.55;;;6.85;;
29576;SDS011;16509;53.862;10.672;2022-08-18T16:44:00;15.65;;;8.20;;
29576;SDS011;16509;53.862;10.672;2022-08-18T16:46:26;14.70;;;8.00;;
29576;SDS011;16509;53.862;10.672;2022-08-18T16:48:56;13.35;;;7.82;;
29576;SDS011;16509;53.862;10.672;2022-08-18T16:51:23;13.07;;;9.35;;
29576;SDS011;16509;53.862;10.672;2022-08-18T16:53:51;11.98;;;7.97;;
29576;SDS011;16509;53.862;10.672;2022-08-18T16:56:19;11.35;;;7.72;;
29576;SDS011;16509;53.862;10.672;2022-08-18T16:58:47;10.60;;;7.35;;
29576;SDS011;16509;53.862;10.672;2022-08-18T17:01:31;10.05;;;7.47;;
29576;SDS011;16509;53.862;10.672;2022-08-18T17:04:18;11.18;;;7.85;;
29576;SDS011;16509;53.862;10.672;2022-08-18T17:06:48;14.98;;;7.68;;
29576;SDS011;16509;53.862;10.672;2022-08-18T17:09:14;9.43;;;6.65;;
29576;SDS011;16509;53.862;10.672;2022-08-18T17:11:41;8.70;;;6.60;;
29576;SDS011;16509;53.862;10.672;2022-08-18T17:17:16;9.30;;;6.77;;
29576;SDS011;16509;53.862;10.672;2022-08-18T17:19:42;10.88;;;7.95;;
29576;SDS011;16509;53.862;10.672;2022-08-18T17:22:10;8.25;;;6.47;;
29576;SDS011;16509;53.862;10.672;2022-08-18T17:24:36;8.32;;;6.50;;
29576;SDS011;16509;53.862;10.672;2022-08-18T17:29:35;12.23;;;6.30;;